sensor_id;sensor_type;location;lat;lon;timestamp;temperature;humidity
22471;DHT22;11402;51.374;6.594;2023-07-08T00:02:16;21.80;99.90
22471;DHT22;11402;51.374;6.594;2023-07-08T00:04:42;21.80;99.90
22471;DHT22;11402;51.374;6.594;2023-07-08T00:07:12;21.80;99.90
22471;DHT22;11402;51.374;6.594;2023-07-08T00:09:38;21.80;99.90
22471;DHT22;11402;51.374;6.594;2023-07-08T00:12:13;21.70;99.90
22471;DHT22;11402;51.374;6.594;2023-07-08T00:14:38;21.80;99.90
22471;DHT22;11402;51.374;6.594;2023-07-08T00:17:10;21.80;99.90
22471;DHT22;11402;51.374;6.594;2023-07-08T00:19:36;21.90;99.90
22471;DHT22;11402;51.374;6.594;2023-07-08T00:22:04;21.80;99.90
22471;DHT22;11402;51.374;6.594;2023-07-08T00:24:30;22.00;99.90
22471;DHT22;11402;51.374;6.594;2023-07-08T00:26:55;21.80;99.90
22471;DHT22;11402;51.374;6.594;2023-07-08T00:29:21;21.80;99.90
22471;DHT22;11402;51.374;6.594;2023-07-08T00:31:46;21.90;99.90
22471;DHT22;11402;51.374;6.594;2023-07-08T00:34:12;21.60;99.90
22471;DHT22;11402;51.374;6.594;2023-07-08T00:36:38;21.50;99.90
22471;DHT22;11402;51.374;6.594;2023-07-08T00:39:12;21.50;99.90
22471;DHT22;11402;51.374;6.594;2023-07-08T00:41:39;21.50;99.90
22471;DHT22;11402;51.374;6.594;2023-07-08T00:44:10;21.60;99.90
22471;DHT22;11402;51.374;6.594;2023-07-08T00:47:02;21.70;99.90
22471;DHT22;11402;51.374;6.594;2023-07-08T00:49:45;21.60;99.90
22471;DHT22;11402;51.374;6.594;2023-07-08T00:54:44;21.50;99.90
22471;DHT22;11402;51.374;6.594;2023-07-08T00:57:10;21.60;99.90
22471;DHT22;11402;51.374;6.594;2023-07-08T00:59:40;21.50;99.90
22471;DHT22;11402;51.374;6.594;2023-07-08T01:02:11;21.50;99.90
22471;DHT22;11402;51.374;6.594;2023-07-08T01:07:12;21.70;99.90
22471;DHT22;11402;51.374;6.594;2023-07-08T01:09:40;21.90;99.90
22471;DHT22;11402;51.374;6.594;2023-07-08T01:12:13;21.80;99.90
22471;DHT22;11402;51.374;6.594;2023-07-08T01:14:41;21.70;99.90
22471;DHT22;11402;51.374;6.594;2023-07-08T01:17:08;21.50;99.90
22471;DHT22;11402;51.374;6.594;2023-07-08T01:19:40;21.50;99.90
22471;DHT22;11402;51.374;6.594;2023-07-08T01:22:07;21.40;99.90
22471;DHT22;11402;51.374;6.594;2023-07-08T01:24:38;21.40;99.90
22471;DHT22;11402;51.374;6.594;2023-07-08T01:27:08;21.60;99.90
22471;DHT22;11402;51.374;6.594;2023-07-08T01:29:35;21.70;99.90
22471;DHT22;11402;51.374;6.594;2023-07-08T01:32:01;21.60;99.90
22471;DHT22;11402;51.374;6.594;2023-07-08T01:34:37;21.50;99.90
22471;DHT22;11402;51.374;6.594;2023-07-08T01:37:04;21.40;99.90
22471;DHT22;11402;51.374;6.594;2023-07-08T01:39:31;21.50;99.90
22471;DHT22;11402;51.374;6.594;2023-07-08T01:41:57;21.50;99.90
22471;DHT22;11402;51.374;6.594;2023-07-08T01:44:33;21.30;99.90
22471;DHT22;11402;51.374;6.594;2023-07-08T01:47:13;21.40;99.90
22471;DHT22;11402;51.374;6.594;2023-07-08T01:49:41;21.30;99.90
22471;DHT22;11402;51.374;6.594;2023-07-08T01:52:08;21.30;99.90
22471;DHT22;11402;51.374;6.594;2023-07-08T01:54:35;21.30;99.90
22471;DHT22;11402;51.374;6.594;2023-07-08T01:57:01;21.20;99.90
22471;DHT22;11402;51.374;6.594;2023-07-08T01:59:28;21.10;99.90
22471;DHT22;11402;51.374;6.594;2023-07-08T02:01:53;21.10;99.90
22471;DHT22;11402;51.374;6.594;2023-07-08T02:04:23;21.10;99.90
22471;DHT22;11402;51.374;6.594;2023-07-08T02:06:58;21.10;99.90
22471;DHT22;11402;51.374;6.594;2023-07-08T02:09:24;21.20;99.90
22471;DHT22;11402;51.374;6.594;2023-07-08T02:11:53;21.20;99.90
22471;DHT22;11402;51.374;6.594;2023-07-08T02:14:19;21.20;99.90
22471;DHT22;11402;51.374;6.594;2023-07-08T02:16:45;21.10;99.90
22471;DHT22;11402;51.374;6.594;2023-07-08T02:19:11;21.20;99.90
22471;DHT22;11402;51.374;6.594;2023-07-08T02:21:37;21.00;99.90
22471;DHT22;11402;51.374;6.594;2023-07-08T02:24:04;21.00;99.90
22471;DHT22;11402;51.374;6.594;2023-07-08T02:26:30;20.90;99.90
22471;DHT22;11402;51.374;6.594;2023-07-08T02:28:58;20.80;99.90
22471;DHT22;11402;51.374;6.594;2023-07-08T02:31:23;20.90;99.90
22471;DHT22;11402;51.374;6.594;2023-07-08T02:33:52;21.00;99.90
22471;DHT22;11402;51.374;6.594;2023-07-08T02:36:19;20.80;99.90
22471;DHT22;11402;51.374;6.594;2023-07-08T02:38:44;20.40;99.90
22471;DHT22;11402;51.374;6.594;2023-07-08T02:41:10;20.60;99.90
22471;DHT22;11402;51.374;6.594;2023-07-08T02:43:40;20.60;99.90
22471;DHT22;11402;51.374;6.594;2023-07-08T02:46:05;20.70;99.90
22471;DHT22;11402;51.374;6.594;2023-07-08T02:48:31;20.70;99.90
22471;DHT22;11402;51.374;6.594;2023-07-08T02:51:00;20.70;99.90
22471;DHT22;11402;51.374;6.594;2023-07-08T02:53:26;20.70;99.90
22471;DHT22;11402;51.374;6.594;2023-07-08T02:55:52;20.80;99.90
22471;DHT22;11402;51.374;6.594;2023-07-08T02:58:17;20.70;99.90
22471;DHT22;11402;51.374;6.594;2023-07-08T03:00:43;20.60;99.90
22471;DHT22;11402;51.374;6.594;2023-07-08T03:03:08;20.70;99.90
22471;DHT22;11402;51.374;6.594;2023-07-08T03:05:34;20.70;99.90
22471;DHT22;11402;51.374;6.594;2023-07-08T03:08:00;20.60;99.90
22471;DHT22;11402;51.374;6.594;2023-07-08T03:10:26;20.50;99.90
22471;DHT22;11402;51.374;6.594;2023-07-08T03:12:51;20.50;99.90
22471;DHT22;11402;51.374;6.594;2023-07-08T03:15:17;20.60;99.90
22471;DHT22;11402;51.374;6.594;2023-07-08T03:17:42;20.70;99.90
22471;DHT22;11402;51.374;6.594;2023-07-08T03:20:09;20.60;99.90
22471;DHT22;11402;51.374;6.594;2023-07-08T03:22:36;20.60;99.90
22471;DHT22;11402;51.374;6.594;2023-07-08T03:25:02;20.70;99.90
22471;DHT22;11402;51.374;6.594;2023-07-08T03:27:27;20.80;99.90
22471;DHT22;11402;51.374;6.594;2023-07-08T03:29:53;20.80;99.90
22471;DHT22;11402;51.374;6.594;2023-07-08T03:32:18;20.80;99.90
22471;DHT22;11402;51.374;6.594;2023-07-08T03:34:44;20.70;99.90
22471;DHT22;11402;51.374;6.594;2023-07-08T03:37:10;20.70;99.90
22471;DHT22;11402;51.374;6.594;2023-07-08T03:39:35;20.90;99.90
22471;DHT22;11402;51.374;6.594;2023-07-08T03:42:01;20.80;99.90
22471;DHT22;11402;51.374;6.594;2023-07-08T03:44:27;20.60;99.90
22471;DHT22;11402;51.374;6.594;2023-07-08T03:46:53;20.50;99.90
22471;DHT22;11402;51.374;6.594;2023-07-08T03:49:20;20.40;99.90
22471;DHT22;11402;51.374;6.594;2023-07-08T03:51:48;20.50;99.90
22471;DHT22;11402;51.374;6.594;2023-07-08T03:54:14;20.40;99.90
22471;DHT22;11402;51.374;6.594;2023-07-08T03:56:41;20.40;99.90
22471;DHT22;11402;51.374;6.594;2023-07-08T03:59:07;20.40;99.90
22471;DHT22;11402;51.374;6.594;2023-07-08T04:01:33;20.30;99.90
22471;DHT22;11402;51.374;6.594;2023-07-08T04:03:59;20.40;99.90
22471;DHT22;11402;51.374;6.594;2023-07-08T04:06:25;20.40;99.90
22471;DHT22;11402;51.374;6.594;2023-07-08T04:08:52;20.40;99.90
22471;DHT22;11402;51.374;6.594;2023-07-08T04:11:22;20.30;99.90
22471;DHT22;11402;51.374;6.594;2023-07-08T04:13:48;20.50;99.90
22471;DHT22;11402;51.374;6.594;2023-07-08T04:16:23;20.40;99.90
22471;DHT22;11402;51.374;6.594;2023-07-08T04:18:50;20.30;99.90
22471;DHT22;11402;51.374;6.594;2023-07-08T04:21:19;20.40;99.90
22471;DHT22;11402;51.374;6.594;2023-07-08T04:23:44;20.60;99.90
22471;DHT22;11402;51.374;6.594;2023-07-08T04:26:10;20.60;99.90
22471;DHT22;11402;51.374;6.594;2023-07-08T04:28:36;20.60;99.90
22471;DHT22;11402;51.374;6.594;2023-07-08T04:31:01;20.60;99.90
22471;DHT22;11402;51.374;6.594;2023-07-08T04:33:27;20.50;99.90
22471;DHT22;11402;51.374;6.594;2023-07-08T04:35:53;20.50;99.90
22471;DHT22;11402;51.374;6.594;2023-07-08T04:38:21;20.50;99.90
22471;DHT22;11402;51.374;6.594;2023-07-08T04:40:51;20.40;99.90
22471;DHT22;11402;51.374;6.594;2023-07-08T04:43:18;20.20;99.90
22471;DHT22;11402;51.374;6.594;2023-07-08T04:45:46;20.20;99.90
22471;DHT22;11402;51.374;6.594;2023-07-08T04:48:15;20.20;99.90
22471;DHT22;11402;51.374;6.594;2023-07-08T04:50:43;20.30;99.90
22471;DHT22;11402;51.374;6.594;2023-07-08T04:53:10;20.40;99.90
22471;DHT22;11402;51.374;6.594;2023-07-08T04:55:39;20.40;99.90
22471;DHT22;11402;51.374;6.594;2023-07-08T04:58:07;20.30;99.90
22471;DHT22;11402;51.374;6.594;2023-07-08T05:00:32;20.40;99.90
22471;DHT22;11402;51.374;6.594;2023-07-08T05:02:58;20.50;99.90
22471;DHT22;11402;51.374;6.594;2023-07-08T05:05:24;20.50;99.90
22471;DHT22;11402;51.374;6.594;2023-07-08T05:07:49;20.50;99.90
22471;DHT22;11402;51.374;6.594;2023-07-08T05:10:15;20.60;99.90
22471;DHT22;11402;51.374;6.594;2023-07-08T05:12:42;20.50;99.90
22471;DHT22;11402;51.374;6.594;2023-07-08T05:15:08;20.40;99.90
22471;DHT22;11402;51.374;6.594;2023-07-08T05:17:34;20.40;99.90
22471;DHT22;11402;51.374;6.594;2023-07-08T05:20:00;20.60;99.90
22471;DHT22;11402;51.374;6.594;2023-07-08T05:22:27;20.60;99.90
22471;DHT22;11402;51.374;6.594;2023-07-08T05:24:53;20.90;99.90
22471;DHT22;11402;51.374;6.594;2023-07-08T05:27:22;21.00;99.90
22471;DHT22;11402;51.374;6.594;2023-07-08T05:29:48;21.00;99.90
22471;DHT22;11402;51.374;6.594;2023-07-08T05:32:14;21.20;99.90
22471;DHT22;11402;51.374;6.594;2023-07-08T05:34:40;21.20;99.90
22471;DHT22;11402;51.374;6.594;2023-07-08T05:37:06;21.20;99.90
22471;DHT22;11402;51.374;6.594;2023-07-08T05:39:31;21.20;99.90
22471;DHT22;11402;51.374;6.594;2023-07-08T05:41:57;21.30;99.90
22471;DHT22;11402;51.374;6.594;2023-07-08T05:44:23;21.30;99.90
22471;DHT22;11402;51.374;6.594;2023-07-08T05:46:49;21.50;99.90
22471;DHT22;11402;51.374;6.594;2023-07-08T05:49:15;21.70;99.90
22471;DHT22;11402;51.374;6.594;2023-07-08T05:51:41;21.60;99.90
22471;DHT22;11402;51.374;6.594;2023-07-08T05:54:06;21.60;99.90
22471;DHT22;11402;51.374;6.594;2023-07-08T05:56:32;21.70;99.90
22471;DHT22;11402;51.374;6.594;2023-07-08T05:58:58;21.90;99.90
22471;DHT22;11402;51.374;6.594;2023-07-08T06:01:23;22.00;99.90
22471;DHT22;11402;51.374;6.594;2023-07-08T06:03:49;21.90;99.90
22471;DHT22;11402;51.374;6.594;2023-07-08T06:06:15;22.10;99.90
22471;DHT22;11402;51.374;6.594;2023-07-08T06:08:41;22.20;99.90
22471;DHT22;11402;51.374;6.594;2023-07-08T06:11:06;22.40;99.90
22471;DHT22;11402;51.374;6.594;2023-07-08T06:13:32;22.40;99.90
22471;DHT22;11402;51.374;6.594;2023-07-08T06:15:58;22.50;99.90
22471;DHT22;11402;51.374;6.594;2023-07-08T06:18:24;22.70;99.90
22471;DHT22;11402;51.374;6.594;2023-07-08T06:20:53;22.80;99.90
22471;DHT22;11402;51.374;6.594;2023-07-08T06:23:19;23.00;99.90
22471;DHT22;11402;51.374;6.594;2023-07-08T06:25:45;23.20;99.90
22471;DHT22;11402;51.374;6.594;2023-07-08T06:28:10;23.40;99.90
22471;DHT22;11402;51.374;6.594;2023-07-08T06:30:36;23.50;99.90
22471;DHT22;11402;51.374;6.594;2023-07-08T06:33:03;23.60;99.90
22471;DHT22;11402;51.374;6.594;2023-07-08T06:35:28;23.70;99.90
22471;DHT22;11402;51.374;6.594;2023-07-08T06:37:54;23.80;99.90
22471;DHT22;11402;51.374;6.594;2023-07-08T06:40:20;23.90;99.90
22471;DHT22;11402;51.374;6.594;2023-07-08T06:42:46;23.90;99.90
22471;DHT22;11402;51.374;6.594;2023-07-08T06:45:12;23.90;99.90
22471;DHT22;11402;51.374;6.594;2023-07-08T06:47:37;23.90;99.90
22471;DHT22;11402;51.374;6.594;2023-07-08T06:50:03;24.00;99.90
22471;DHT22;11402;51.374;6.594;2023-07-08T06:52:29;24.20;99.90
22471;DHT22;11402;51.374;6.594;2023-07-08T06:55:01;24.30;99.90
22471;DHT22;11402;51.374;6.594;2023-07-08T06:57:27;24.40;99.90
22471;DHT22;11402;51.374;6.594;2023-07-08T06:59:53;24.40;99.90
22471;DHT22;11402;51.374;6.594;2023-07-08T07:02:18;24.50;99.90
22471;DHT22;11402;51.374;6.594;2023-07-08T07:04:45;24.50;99.90
22471;DHT22;11402;51.374;6.594;2023-07-08T07:07:10;24.60;99.90
22471;DHT22;11402;51.374;6.594;2023-07-08T07:09:36;24.60;99.90
22471;DHT22;11402;51.374;6.594;2023-07-08T07:12:02;24.70;99.90
22471;DHT22;11402;51.374;6.594;2023-07-08T07:14:27;24.80;99.90
22471;DHT22;11402;51.374;6.594;2023-07-08T07:16:53;24.80;99.90
22471;DHT22;11402;51.374;6.594;2023-07-08T07:19:18;24.90;99.90
22471;DHT22;11402;51.374;6.594;2023-07-08T07:21:45;24.90;99.90
22471;DHT22;11402;51.374;6.594;2023-07-08T07:24:10;25.10;99.90
22471;DHT22;11402;51.374;6.594;2023-07-08T07:26:37;25.20;99.90
22471;DHT22;11402;51.374;6.594;2023-07-08T07:29:02;25.20;99.90
22471;DHT22;11402;51.374;6.594;2023-07-08T07:31:28;25.20;99.90
22471;DHT22;11402;51.374;6.594;2023-07-08T07:33:55;25.30;99.90
22471;DHT22;11402;51.374;6.594;2023-07-08T07:36:20;25.30;99.90
22471;DHT22;11402;51.374;6.594;2023-07-08T07:38:46;25.50;99.90
22471;DHT22;11402;51.374;6.594;2023-07-08T07:41:11;25.60;99.90
22471;DHT22;11402;51.374;6.594;2023-07-08T07:43:38;25.80;99.90
22471;DHT22;11402;51.374;6.594;2023-07-08T07:46:03;26.00;99.90
22471;DHT22;11402;51.374;6.594;2023-07-08T07:48:31;25.90;99.90
22471;DHT22;11402;51.374;6.594;2023-07-08T07:50:57;26.00;99.90
22471;DHT22;11402;51.374;6.594;2023-07-08T07:53:23;26.00;99.20
22471;DHT22;11402;51.374;6.594;2023-07-08T07:55:56;26.00;99.90
22471;DHT22;11402;51.374;6.594;2023-07-08T07:58:22;26.20;99.90
22471;DHT22;11402;51.374;6.594;2023-07-08T08:00:47;26.30;99.20
22471;DHT22;11402;51.374;6.594;2023-07-08T08:03:13;26.30;99.70
22471;DHT22;11402;51.374;6.594;2023-07-08T08:05:38;26.40;99.70
22471;DHT22;11402;51.374;6.594;2023-07-08T08:08:04;26.30;96.40
22471;DHT22;11402;51.374;6.594;2023-07-08T08:10:30;26.30;96.10
22471;DHT22;11402;51.374;6.594;2023-07-08T08:12:57;26.40;96.30
22471;DHT22;11402;51.374;6.594;2023-07-08T08:15:23;26.50;93.00
22471;DHT22;11402;51.374;6.594;2023-07-08T08:17:49;26.60;95.40
22471;DHT22;11402;51.374;6.594;2023-07-08T08:20:18;26.60;93.00
22471;DHT22;11402;51.374;6.594;2023-07-08T08:22:44;26.80;94.00
22471;DHT22;11402;51.374;6.594;2023-07-08T08:25:09;26.90;93.30
22471;DHT22;11402;51.374;6.594;2023-07-08T08:27:38;27.00;94.80
22471;DHT22;11402;51.374;6.594;2023-07-08T08:30:05;27.00;95.30
22471;DHT22;11402;51.374;6.594;2023-07-08T08:32:31;27.10;92.90
22471;DHT22;11402;51.374;6.594;2023-07-08T08:34:57;27.10;94.10
22471;DHT22;11402;51.374;6.594;2023-07-08T08:37:23;27.20;90.40
22471;DHT22;11402;51.374;6.594;2023-07-08T08:39:49;27.30;90.20
22471;DHT22;11402;51.374;6.594;2023-07-08T08:42:24;27.40;92.00
22471;DHT22;11402;51.374;6.594;2023-07-08T08:44:51;27.40;91.70
22471;DHT22;11402;51.374;6.594;2023-07-08T08:47:41;27.50;92.20
22471;DHT22;11402;51.374;6.594;2023-07-08T08:50:20;27.50;90.80
22471;DHT22;11402;51.374;6.594;2023-07-08T08:52:50;27.50;90.30
22471;DHT22;11402;51.374;6.594;2023-07-08T08:55:17;27.60;87.50
22471;DHT22;11402;51.374;6.594;2023-07-08T08:57:53;27.60;87.30
22471;DHT22;11402;51.374;6.594;2023-07-08T09:00:41;27.60;85.50
22471;DHT22;11402;51.374;6.594;2023-07-08T09:03:18;27.70;88.00
22471;DHT22;11402;51.374;6.594;2023-07-08T09:05:46;27.90;84.20
22471;DHT22;11402;51.374;6.594;2023-07-08T09:08:23;27.80;82.20
22471;DHT22;11402;51.374;6.594;2023-07-08T09:13:40;28.00;82.50
22471;DHT22;11402;51.374;6.594;2023-07-08T09:22:19;28.10;81.80
22471;DHT22;11402;51.374;6.594;2023-07-08T09:24:50;28.10;83.20
22471;DHT22;11402;51.374;6.594;2023-07-08T09:27:16;28.20;80.30
22471;DHT22;11402;51.374;6.594;2023-07-08T09:29:42;28.30;83.00
22471;DHT22;11402;51.374;6.594;2023-07-08T09:32:27;28.30;82.40
22471;DHT22;11402;51.374;6.594;2023-07-08T09:34:57;28.30;85.20
22471;DHT22;11402;51.374;6.594;2023-07-08T09:37:29;28.30;83.20
22471;DHT22;11402;51.374;6.594;2023-07-08T09:39:57;28.30;81.50
22471;DHT22;11402;51.374;6.594;2023-07-08T09:42:30;28.30;77.90
22471;DHT22;11402;51.374;6.594;2023-07-08T09:45:12;28.50;77.90
22471;DHT22;11402;51.374;6.594;2023-07-08T09:47:38;28.50;78.40
22471;DHT22;11402;51.374;6.594;2023-07-08T09:50:27;28.60;87.50
22471;DHT22;11402;51.374;6.594;2023-07-08T09:52:57;28.80;81.90
22471;DHT22;11402;51.374;6.594;2023-07-08T09:55:23;28.80;79.90
22471;DHT22;11402;51.374;6.594;2023-07-08T09:57:52;28.80;78.80
22471;DHT22;11402;51.374;6.594;2023-07-08T10:00:26;29.00;81.20
22471;DHT22;11402;51.374;6.594;2023-07-08T10:02:55;29.00;76.20
22471;DHT22;11402;51.374;6.594;2023-07-08T10:05:35;29.10;77.20
22471;DHT22;11402;51.374;6.594;2023-07-08T10:08:13;29.00;77.50
22471;DHT22;11402;51.374;6.594;2023-07-08T10:10:39;29.10;76.60
22471;DHT22;11402;51.374;6.594;2023-07-08T10:13:24;29.20;76.80
22471;DHT22;11402;51.374;6.594;2023-07-08T10:16:09;29.20;79.00
22471;DHT22;11402;51.374;6.594;2023-07-08T10:18:37;29.30;77.10
22471;DHT22;11402;51.374;6.594;2023-07-08T10:21:13;29.30;74.00
22471;DHT22;11402;51.374;6.594;2023-07-08T10:26:46;29.30;72.00
22471;DHT22;11402;51.374;6.594;2023-07-08T10:29:29;29.30;76.50
22471;DHT22;11402;51.374;6.594;2023-07-08T10:32:16;29.50;72.70
22471;DHT22;11402;51.374;6.594;2023-07-08T10:34:58;29.60;73.70
22471;DHT22;11402;51.374;6.594;2023-07-08T10:40:49;29.70;72.90
22471;DHT22;11402;51.374;6.594;2023-07-08T10:43:25;29.60;74.60
22471;DHT22;11402;51.374;6.594;2023-07-08T10:46:06;29.70;74.50
22471;DHT22;11402;51.374;6.594;2023-07-08T10:54:12;29.80;70.10
22471;DHT22;11402;51.374;6.594;2023-07-08T11:02:39;30.00;72.80
22471;DHT22;11402;51.374;6.594;2023-07-08T11:05:28;30.10;73.40
22471;DHT22;11402;51.374;6.594;2023-07-08T11:08:22;30.00;69.90
22471;DHT22;11402;51.374;6.594;2023-07-08T11:10:52;30.10;69.90
22471;DHT22;11402;51.374;6.594;2023-07-08T11:13:21;30.20;69.60
22471;DHT22;11402;51.374;6.594;2023-07-08T11:15:56;30.10;68.40
22471;DHT22;11402;51.374;6.594;2023-07-08T11:21:02;30.20;68.40
22471;DHT22;11402;51.374;6.594;2023-07-08T11:28:54;30.20;72.00
22471;DHT22;11402;51.374;6.594;2023-07-08T11:31:22;30.30;69.80
22471;DHT22;11402;51.374;6.594;2023-07-08T11:33:48;30.40;68.80
22471;DHT22;11402;51.374;6.594;2023-07-08T11:36:15;30.50;69.60
22471;DHT22;11402;51.374;6.594;2023-07-08T11:38:50;30.60;70.60
22471;DHT22;11402;51.374;6.594;2023-07-08T11:41:20;30.70;69.40
22471;DHT22;11402;51.374;6.594;2023-07-08T11:43:51;30.60;68.00
22471;DHT22;11402;51.374;6.594;2023-07-08T11:46:24;30.60;66.60
22471;DHT22;11402;51.374;6.594;2023-07-08T11:48:55;30.60;64.40
22471;DHT22;11402;51.374;6.594;2023-07-08T11:51:28;30.70;63.90
22471;DHT22;11402;51.374;6.594;2023-07-08T11:54:00;30.60;63.70
22471;DHT22;11402;51.374;6.594;2023-07-08T11:56:27;30.80;64.90
22471;DHT22;11402;51.374;6.594;2023-07-08T12:01:46;30.70;62.50
22471;DHT22;11402;51.374;6.594;2023-07-08T12:09:28;30.80;68.10
22471;DHT22;11402;51.374;6.594;2023-07-08T12:12:03;30.80;64.60
22471;DHT22;11402;51.374;6.594;2023-07-08T12:14:31;30.80;65.10
22471;DHT22;11402;51.374;6.594;2023-07-08T12:16:58;30.90;64.60
22471;DHT22;11402;51.374;6.594;2023-07-08T12:19:26;30.90;59.90
22471;DHT22;11402;51.374;6.594;2023-07-08T12:21:54;30.90;61.60
22471;DHT22;11402;51.374;6.594;2023-07-08T12:24:20;30.80;65.10
22471;DHT22;11402;51.374;6.594;2023-07-08T12:26:50;30.60;63.00
22471;DHT22;11402;51.374;6.594;2023-07-08T12:29:16;30.70;63.70
22471;DHT22;11402;51.374;6.594;2023-07-08T12:31:42;30.60;61.70
22471;DHT22;11402;51.374;6.594;2023-07-08T12:34:15;30.80;62.30
22471;DHT22;11402;51.374;6.594;2023-07-08T12:36:43;30.80;60.30
22471;DHT22;11402;51.374;6.594;2023-07-08T12:39:12;30.60;61.10
22471;DHT22;11402;51.374;6.594;2023-07-08T12:41:41;30.70;65.80
22471;DHT22;11402;51.374;6.594;2023-07-08T12:44:19;30.80;61.50
22471;DHT22;11402;51.374;6.594;2023-07-08T12:46:46;30.80;62.60
22471;DHT22;11402;51.374;6.594;2023-07-08T12:49:14;30.80;61.80
22471;DHT22;11402;51.374;6.594;2023-07-08T12:51:43;30.80;58.00
22471;DHT22;11402;51.374;6.594;2023-07-08T12:54:09;30.80;60.30
22471;DHT22;11402;51.374;6.594;2023-07-08T12:56:35;30.80;62.00
22471;DHT22;11402;51.374;6.594;2023-07-08T12:59:01;30.90;65.00
22471;DHT22;11402;51.374;6.594;2023-07-08T13:01:30;31.10;59.60
22471;DHT22;11402;51.374;6.594;2023-07-08T13:04:00;31.10;61.80
22471;DHT22;11402;51.374;6.594;2023-07-08T13:06:29;31.20;59.60
22471;DHT22;11402;51.374;6.594;2023-07-08T13:09:04;31.10;60.70
22471;DHT22;11402;51.374;6.594;2023-07-08T13:11:32;31.10;59.70
22471;DHT22;11402;51.374;6.594;2023-07-08T13:14:00;31.10;61.30
22471;DHT22;11402;51.374;6.594;2023-07-08T13:16:31;31.10;64.40
22471;DHT22;11402;51.374;6.594;2023-07-08T13:18:57;31.00;61.60
22471;DHT22;11402;51.374;6.594;2023-07-08T13:21:23;31.00;61.20
22471;DHT22;11402;51.374;6.594;2023-07-08T13:23:53;31.00;62.10
22471;DHT22;11402;51.374;6.594;2023-07-08T13:26:22;30.90;59.80
22471;DHT22;11402;51.374;6.594;2023-07-08T13:28:48;31.10;60.80
22471;DHT22;11402;51.374;6.594;2023-07-08T13:31:16;31.10;59.70
22471;DHT22;11402;51.374;6.594;2023-07-08T13:33:55;31.10;60.40
22471;DHT22;11402;51.374;6.594;2023-07-08T13:36:31;31.30;60.50
22471;DHT22;11402;51.374;6.594;2023-07-08T13:39:05;31.10;59.30
22471;DHT22;11402;51.374;6.594;2023-07-08T13:41:31;31.20;58.40
22471;DHT22;11402;51.374;6.594;2023-07-08T13:43:56;31.20;62.90
22471;DHT22;11402;51.374;6.594;2023-07-08T13:46:43;31.30;60.60
22471;DHT22;11402;51.374;6.594;2023-07-08T13:49:15;31.60;64.80
22471;DHT22;11402;51.374;6.594;2023-07-08T13:51:44;31.40;59.50
22471;DHT22;11402;51.374;6.594;2023-07-08T13:54:31;31.20;62.40
22471;DHT22;11402;51.374;6.594;2023-07-08T13:57:01;30.70;67.50
22471;DHT22;11402;51.374;6.594;2023-07-08T13:59:27;31.30;59.70
22471;DHT22;11402;51.374;6.594;2023-07-08T14:01:55;31.30;71.90
22471;DHT22;11402;51.374;6.594;2023-07-08T14:04:34;32.00;76.30
22471;DHT22;11402;51.374;6.594;2023-07-08T14:07:00;31.30;75.60
22471;DHT22;11402;51.374;6.594;2023-07-08T14:09:26;31.30;70.60
22471;DHT22;11402;51.374;6.594;2023-07-08T14:11:52;31.30;61.40
22471;DHT22;11402;51.374;6.594;2023-07-08T14:14:18;31.10;56.30
22471;DHT22;11402;51.374;6.594;2023-07-08T14:16:46;31.30;55.10
22471;DHT22;11402;51.374;6.594;2023-07-08T14:19:19;31.20;57.30
22471;DHT22;11402;51.374;6.594;2023-07-08T14:21:46;31.30;59.50
22471;DHT22;11402;51.374;6.594;2023-07-08T14:24:15;31.40;57.90
22471;DHT22;11402;51.374;6.594;2023-07-08T14:26:44;31.50;58.60
22471;DHT22;11402;51.374;6.594;2023-07-08T14:29:10;31.50;58.40
22471;DHT22;11402;51.374;6.594;2023-07-08T14:31:37;31.50;56.80
22471;DHT22;11402;51.374;6.594;2023-07-08T14:34:07;31.30;56.40
22471;DHT22;11402;51.374;6.594;2023-07-08T14:36:33;31.30;58.10
22471;DHT22;11402;51.374;6.594;2023-07-08T14:38:59;31.50;57.10
22471;DHT22;11402;51.374;6.594;2023-07-08T14:41:26;31.50;55.90
22471;DHT22;11402;51.374;6.594;2023-07-08T14:43:54;31.40;57.40
22471;DHT22;11402;51.374;6.594;2023-07-08T14:46:20;31.50;54.10
22471;DHT22;11402;51.374;6.594;2023-07-08T14:48:45;31.30;52.70
22471;DHT22;11402;51.374;6.594;2023-07-08T14:51:11;31.20;57.80
22471;DHT22;11402;51.374;6.594;2023-07-08T14:53:36;31.30;60.60
22471;DHT22;11402;51.374;6.594;2023-07-08T14:56:11;31.40;58.30
22471;DHT22;11402;51.374;6.594;2023-07-08T14:58:40;31.30;57.00
22471;DHT22;11402;51.374;6.594;2023-07-08T15:01:14;31.30;56.40
22471;DHT22;11402;51.374;6.594;2023-07-08T15:03:40;31.20;57.20
22471;DHT22;11402;51.374;6.594;2023-07-08T15:06:10;31.20;57.50
22471;DHT22;11402;51.374;6.594;2023-07-08T15:08:35;31.30;60.40
22471;DHT22;11402;51.374;6.594;2023-07-08T15:11:01;31.30;58.90
22471;DHT22;11402;51.374;6.594;2023-07-08T15:13:28;31.40;58.40
22471;DHT22;11402;51.374;6.594;2023-07-08T15:15:54;31.30;57.90
22471;DHT22;11402;51.374;6.594;2023-07-08T15:18:20;31.50;58.30
22471;DHT22;11402;51.374;6.594;2023-07-08T15:20:46;31.60;61.20
22471;DHT22;11402;51.374;6.594;2023-07-08T15:23:11;31.50;59.30
22471;DHT22;11402;51.374;6.594;2023-07-08T15:25:40;31.50;59.60
22471;DHT22;11402;51.374;6.594;2023-07-08T15:28:14;31.40;60.50
22471;DHT22;11402;51.374;6.594;2023-07-08T15:30:40;31.40;65.00
22471;DHT22;11402;51.374;6.594;2023-07-08T15:33:08;31.40;67.90
22471;DHT22;11402;51.374;6.594;2023-07-08T15:35:34;31.40;62.80
22471;DHT22;11402;51.374;6.594;2023-07-08T15:38:00;31.30;63.90
22471;DHT22;11402;51.374;6.594;2023-07-08T15:40:34;31.20;63.50
22471;DHT22;11402;51.374;6.594;2023-07-08T15:43:01;31.30;66.20
22471;DHT22;11402;51.374;6.594;2023-07-08T15:45:37;31.30;64.00
22471;DHT22;11402;51.374;6.594;2023-07-08T15:48:03;31.50;64.40
22471;DHT22;11402;51.374;6.594;2023-07-08T15:50:29;31.50;64.00
22471;DHT22;11402;51.374;6.594;2023-07-08T15:52:55;31.50;65.30
22471;DHT22;11402;51.374;6.594;2023-07-08T15:55:26;31.40;61.50
22471;DHT22;11402;51.374;6.594;2023-07-08T15:58:14;31.40;60.40
22471;DHT22;11402;51.374;6.594;2023-07-08T16:00:43;31.40;65.70
22471;DHT22;11402;51.374;6.594;2023-07-08T16:03:26;31.50;63.30
22471;DHT22;11402;51.374;6.594;2023-07-08T16:05:53;31.60;71.80
22471;DHT22;11402;51.374;6.594;2023-07-08T16:08:19;30.90;81.00
22471;DHT22;11402;51.374;6.594;2023-07-08T16:10:56;32.10;77.40
22471;DHT22;11402;51.374;6.594;2023-07-08T16:13:29;31.70;74.50
22471;DHT22;11402;51.374;6.594;2023-07-08T16:15:55;31.70;71.90
22471;DHT22;11402;51.374;6.594;2023-07-08T16:18:20;31.70;69.80
22471;DHT22;11402;51.374;6.594;2023-07-08T16:20:47;31.70;66.20
22471;DHT22;11402;51.374;6.594;2023-07-08T16:23:12;31.70;66.90
22471;DHT22;11402;51.374;6.594;2023-07-08T16:25:41;32.00;79.10
22471;DHT22;11402;51.374;6.594;2023-07-08T16:30:42;31.70;81.00